createdAt,value
2022-11-12T00:00:38.942Z,97.00
2022-11-12T00:01:38.991Z,97.10
2022-11-12T00:02:38.909Z,97.00
2022-11-12T00:03:38.921Z,97.41
2022-11-12T00:04:39.003Z,97.20
2022-11-12T00:05:38.878Z,97.10
2022-11-12T00:06:38.930Z,97.20
2022-11-12T00:07:38.854Z,97.88
2022-11-12T00:08:38.843Z,97.78
2022-11-12T00:09:38.833Z,97.67
2022-11-12T00:10:38.822Z,97.74
2022-11-12T00:11:38.807Z,97.22
2022-11-12T00:12:38.826Z,97.42
2022-11-12T00:13:38.787Z,97.53
2022-11-12T00:14:38.799Z,97.53
2022-11-12T00:15:38.807Z,97.53
2022-11-12T00:16:38.758Z,97.57
2022-11-12T00:17:38.744Z,97.78
2022-11-12T00:18:38.764Z,97.78
2022-11-12T00:19:38.722Z,97.67
2022-11-12T00:20:38.826Z,97.26
2022-11-12T00:21:38.866Z,97.26
2022-11-12T00:22:38.710Z,97.36
2022-11-12T00:23:38.675Z,97.47
2022-11-12T00:24:38.669Z,97.26
2022-11-12T00:25:38.678Z,97.47
2022-11-12T00:26:38.644Z,97.78
2022-11-12T00:27:38.633Z,97.57
2022-11-12T00:28:38.887Z,97.72
2022-11-12T00:29:38.607Z,97.52
2022-11-12T00:30:38.622Z,97.52
2022-11-12T00:31:38.587Z,97.47
2022-11-12T00:32:38.583Z,97.83
2022-11-12T00:33:38.584Z,97.62
2022-11-12T00:34:38.554Z,97.31
2022-11-12T00:35:38.546Z,97.52
2022-11-12T00:36:38.642Z,97.47
2022-11-12T00:37:38.531Z,97.72
2022-11-12T00:38:38.530Z,97.52
2022-11-12T00:39:38.501Z,97.52
2022-11-12T00:40:38.486Z,97.41
2022-11-12T00:41:38.482Z,97.93
2022-11-12T00:42:38.466Z,98.03
2022-11-12T00:43:38.474Z,97.62
2022-11-12T00:44:38.446Z,97.83
2022-11-12T00:45:38.439Z,97.83
2022-11-12T00:46:38.424Z,97.62
2022-11-12T00:47:38.414Z,97.62
2022-11-12T00:48:38.422Z,97.52
2022-11-12T00:49:38.384Z,97.62
2022-11-12T00:52:59.501Z,98.55
2022-11-12T00:53:59.294Z,98.44
2022-11-12T00:54:59.301Z,98.34
2022-11-12T00:55:59.271Z,98.34
2022-11-12T00:56:59.265Z,98.34
2022-11-12T00:57:59.256Z,98.55
2022-11-12T00:58:59.255Z,98.13
2022-11-12T00:59:59.240Z,97.99
2022-11-12T01:00:59.279Z,97.99
2022-11-12T01:01:59.207Z,98.09
2022-11-12T01:02:59.196Z,98.09
2022-11-12T01:03:59.258Z,97.88
2022-11-12T01:04:59.198Z,97.88
2022-11-12T01:05:59.177Z,97.88
2022-11-12T01:06:59.266Z,97.99
2022-11-12T01:07:59.139Z,97.88
2022-11-12T01:08:59.267Z,97.88
2022-11-12T01:09:59.151Z,97.99
2022-11-12T01:10:59.118Z,97.78
2022-11-12T01:11:59.094Z,97.78
2022-11-12T01:12:59.084Z,98.19
2022-11-12T01:13:59.083Z,97.78
2022-11-12T01:14:59.106Z,98.19
2022-11-12T01:15:59.092Z,98.30
2022-11-12T01:16:59.042Z,98.30
2022-11-12T01:17:59.049Z,98.19
2022-11-12T01:18:59.049Z,98.30
2022-11-12T01:19:59.008Z,97.57
2022-11-12T01:20:59.000Z,97.57
2022-11-12T01:21:59.004Z,97.78
2022-11-12T01:22:58.976Z,97.52
2022-11-12T01:23:58.965Z,97.52
2022-11-12T01:24:59.087Z,97.31
2022-11-12T01:25:58.945Z,97.83
2022-11-12T01:26:58.972Z,97.83
2022-11-12T01:27:58.919Z,97.52
2022-11-12T01:28:58.911Z,97.72
2022-11-12T01:29:58.896Z,97.83
2022-11-12T01:30:58.886Z,97.56
2022-11-12T01:31:58.903Z,97.62
2022-11-12T01:32:58.874Z,97.45
2022-11-12T01:33:58.884Z,97.56
2022-11-12T01:34:58.868Z,97.35
2022-11-12T01:35:58.848Z,97.56
2022-11-12T01:36:58.824Z,97.35
2022-11-12T01:37:58.816Z,97.39
2022-11-12T01:38:58.808Z,97.39
2022-11-12T01:39:58.811Z,97.50
2022-11-12T01:40:58.898Z,97.60
2022-11-12T01:41:58.768Z,97.91
2022-11-12T01:42:58.759Z,97.81
2022-11-12T01:43:58.746Z,97.71
2022-11-12T01:44:58.771Z,97.81
2022-11-12T01:45:58.727Z,98.58
2022-11-12T01:46:58.713Z,98.33
2022-11-12T01:47:58.700Z,98.48
2022-11-12T01:48:58.698Z,98.48
2022-11-12T01:49:58.687Z,98.27
2022-11-12T01:50:58.691Z,97.96
2022-11-12T01:51:58.656Z,98.27
2022-11-12T01:52:58.660Z,98.17
2022-11-12T01:53:58.635Z,97.86
2022-11-12T01:54:58.626Z,98.38
2022-11-12T01:55:58.637Z,98.38
2022-11-12T01:56:58.713Z,98.38
2022-11-12T01:57:58.602Z,98.38
2022-11-12T01:58:58.586Z,98.38
2022-11-12T01:59:58.568Z,98.17
2022-11-12T02:00:58.627Z,98.21
2022-11-12T02:01:58.556Z,98.42
2022-11-12T02:02:58.538Z,98.21
2022-11-12T02:03:58.531Z,98.42
2022-11-12T02:04:58.516Z,97.90
2022-11-12T02:05:58.524Z,98.42
2022-11-12T02:06:58.545Z,98.47
2022-11-12T02:07:58.481Z,98.32
2022-11-12T02:08:58.472Z,98.00
2022-11-12T02:09:58.642Z,98.05
2022-11-12T02:10:58.455Z,98.78
2022-11-12T02:11:58.449Z,98.16
2022-11-12T02:12:58.540Z,98.78
2022-11-12T02:13:58.427Z,98.68
2022-11-12T02:14:58.423Z,98.68
2022-11-12T02:15:58.654Z,98.82
2022-11-12T02:16:58.382Z,98.72
2022-11-12T02:17:58.381Z,98.61
2022-11-12T02:18:58.371Z,98.82
2022-11-12T02:19:58.363Z,98.72
2022-11-12T02:20:58.370Z,99.44
2022-11-12T02:21:58.340Z,99.03
2022-11-12T02:22:58.320Z,99.34
2022-11-12T02:23:58.304Z,98.72
2022-11-12T02:24:58.319Z,99.03
2022-11-12T02:25:58.307Z,99.44
2022-11-12T02:26:58.296Z,99.55
2022-11-12T02:27:58.265Z,99.13
2022-11-12T02:28:58.388Z,99.07
2022-11-12T02:29:58.285Z,99.28
2022-11-12T02:30:58.228Z,99.38
2022-11-12T02:31:58.219Z,99.28
2022-11-12T02:32:58.230Z,99.07
2022-11-12T02:33:58.194Z,99.18
2022-11-12T02:34:58.187Z,99.07
2022-11-12T02:35:58.172Z,99.49
2022-11-12T02:36:58.184Z,99.28
2022-11-12T02:37:58.173Z,99.64
2022-11-12T02:38:58.139Z,99.54
2022-11-12T02:39:58.134Z,99.64
2022-11-12T02:40:58.115Z,99.64
2022-11-12T02:41:58.131Z,99.43
2022-11-12T02:42:58.096Z,99.12
2022-11-12T02:43:58.084Z,99.12
2022-11-12T02:44:58.190Z,99.33
2022-11-12T02:45:58.065Z,99.48
2022-11-12T02:46:58.048Z,99.22
2022-11-12T02:47:58.065Z,99.48
2022-11-12T02:48:58.026Z,99.37
2022-11-12T02:49:58.018Z,99.37
2022-11-12T02:50:58.009Z,99.48
2022-11-12T02:51:57.998Z,99.33
2022-11-12T02:52:58.047Z,99.12
2022-11-12T02:53:57.978Z,99.22
2022-11-12T02:54:58.052Z,99.22
2022-11-12T02:55:57.954Z,99.22
2022-11-12T02:56:57.948Z,99.16
2022-11-12T02:57:57.932Z,99.12
2022-11-12T02:58:57.946Z,99.22
2022-11-12T02:59:57.911Z,99.16
2022-11-12T03:00:58.118Z,99.43
2022-11-12T03:01:57.896Z,99.37
2022-11-12T03:02:57.894Z,99.43
2022-11-12T03:03:57.886Z,99.48
2022-11-12T03:04:57.859Z,99.54
2022-11-12T03:05:57.867Z,99.64
2022-11-12T03:06:57.912Z,99.54
2022-11-12T03:07:57.821Z,99.64
2022-11-12T03:08:57.833Z,99.90
2022-11-12T03:09:57.800Z,99.99
2022-11-12T03:10:57.784Z,99.90
2022-11-12T03:11:57.776Z,99.90
2022-11-12T03:12:57.814Z,99.79
2022-11-12T03:13:57.774Z,99.58
2022-11-12T03:14:57.746Z,99.90
2022-11-12T03:15:57.789Z,99.79
2022-11-12T03:16:57.832Z,99.79
2022-11-12T03:17:57.719Z,99.84
2022-11-12T03:18:57.718Z,99.94
2022-11-12T03:19:57.692Z,99.99
2022-11-12T03:20:57.697Z,99.99
2022-11-12T03:21:57.666Z,99.99
2022-11-12T03:22:57.652Z,99.90
2022-11-12T03:23:57.665Z,99.84
2022-11-12T03:24:57.633Z,99.99
2022-11-12T03:25:57.625Z,99.73
2022-11-12T03:26:57.608Z,99.99
2022-11-12T03:27:57.603Z,99.94
2022-11-12T03:28:57.628Z,99.68
2022-11-12T03:29:57.582Z,99.99
2022-11-12T03:30:57.567Z,99.48
2022-11-12T03:31:57.598Z,99.79
2022-11-12T03:32:57.682Z,99.79
2022-11-12T03:33:57.553Z,99.48
2022-11-12T03:34:57.522Z,99.68
2022-11-12T03:35:57.515Z,99.68
2022-11-12T03:36:57.501Z,99.90
2022-11-12T03:37:57.512Z,99.95
2022-11-12T03:38:57.476Z,99.64
2022-11-12T03:39:57.471Z,99.54
2022-11-12T03:40:57.461Z,99.99
2022-11-12T03:41:57.452Z,99.95
2022-11-12T03:42:57.433Z,99.99
2022-11-12T03:43:57.447Z,99.99
2022-11-12T03:44:57.438Z,99.99
2022-11-12T03:45:57.425Z,99.99
2022-11-12T03:46:57.434Z,99.99
2022-11-12T03:47:57.390Z,99.99
2022-11-12T03:48:57.482Z,99.99
2022-11-12T03:49:57.360Z,99.99
2022-11-12T03:50:57.362Z,99.99
2022-11-12T03:51:57.368Z,99.99
2022-11-12T03:52:57.329Z,99.99
2022-11-12T03:53:57.315Z,99.99
2022-11-12T03:54:57.304Z,99.99
2022-11-12T03:55:57.290Z,99.99
2022-11-12T03:56:57.286Z,99.99
2022-11-12T03:57:57.292Z,99.99
2022-11-12T03:58:57.271Z,99.99
2022-11-12T03:59:57.268Z,99.99
2022-11-12T04:00:57.248Z,99.99
2022-11-12T04:01:57.251Z,99.99
2022-11-12T04:02:57.211Z,99.99
2022-11-12T04:03:57.209Z,99.99
2022-11-12T04:04:57.304Z,99.99
2022-11-12T04:05:57.186Z,99.99
2022-11-12T04:06:57.251Z,99.99
2022-11-12T04:07:57.186Z,99.99
2022-11-12T04:08:57.150Z,99.99
2022-11-12T04:09:57.165Z,99.99
2022-11-12T04:10:57.162Z,99.99
2022-11-12T04:11:57.138Z,99.99
2022-11-12T04:12:57.105Z,99.99
2022-11-12T04:13:57.095Z,99.99
2022-11-12T04:14:57.090Z,99.99
2022-11-12T04:18:18.483Z,99.99
2022-11-12T04:19:18.460Z,99.99
2022-11-12T04:20:18.558Z,99.88
2022-11-12T04:21:18.439Z,99.99
2022-11-12T04:22:18.440Z,99.99
2022-11-12T04:23:18.417Z,99.99
2022-11-12T04:24:18.408Z,99.99
2022-11-12T04:25:18.395Z,99.77
2022-11-12T04:26:18.385Z,99.99
2022-11-12T04:27:18.388Z,99.99
2022-11-12T04:28:18.362Z,99.99
2022-11-12T04:29:18.422Z,99.99
2022-11-12T04:30:18.357Z,99.99
2022-11-12T04:31:18.333Z,99.99
2022-11-12T04:32:18.330Z,99.99
2022-11-12T04:33:18.305Z,99.99
2022-11-12T04:34:18.293Z,99.99
2022-11-12T04:35:18.287Z,99.99
2022-11-12T04:36:18.389Z,99.99
2022-11-12T04:37:23.206Z,99.99
2022-11-12T04:38:19.267Z,99.99
2022-11-12T04:39:18.251Z,99.99
2022-11-12T04:40:18.279Z,99.99
2022-11-12T04:41:18.259Z,99.99
2022-11-12T04:42:18.213Z,99.99
2022-11-12T04:43:18.204Z,99.99
2022-11-12T04:44:18.225Z,99.99
2022-11-12T04:45:18.255Z,99.99
2022-11-12T04:46:18.200Z,99.99
2022-11-12T04:47:18.158Z,99.99
2022-11-12T04:48:18.154Z,99.99
2022-11-12T04:49:18.139Z,99.99
2022-11-12T04:50:18.189Z,99.99
2022-11-12T04:51:18.119Z,99.99
2022-11-12T04:52:18.214Z,99.99
2022-11-12T04:53:18.116Z,99.99
2022-11-12T04:54:18.080Z,99.99
2022-11-12T04:55:18.073Z,99.99
2022-11-12T04:56:18.056Z,99.99
2022-11-12T04:57:18.047Z,99.99
2022-11-12T04:58:18.054Z,99.99
2022-11-12T04:59:18.053Z,99.99
2022-11-12T05:00:18.012Z,99.99
2022-11-12T05:01:18.142Z,99.99
2022-11-12T05:02:18.012Z,99.99
2022-11-12T05:03:18.004Z,99.99
2022-11-12T05:04:17.968Z,99.99
2022-11-12T05:05:17.957Z,99.99
2022-11-12T05:06:17.946Z,99.99
2022-11-12T05:07:18.018Z,99.99
2022-11-12T05:08:18.060Z,99.99
2022-11-12T05:09:17.911Z,99.99
2022-11-12T05:10:17.899Z,99.99
2022-11-12T05:11:17.914Z,99.99
2022-11-12T05:12:17.881Z,99.99
2022-11-12T05:13:17.890Z,99.99
2022-11-12T05:14:17.857Z,99.99
2022-11-12T05:15:17.847Z,99.99
2022-11-12T05:16:17.835Z,99.99
2022-11-12T05:17:17.825Z,99.99
2022-11-12T05:18:17.829Z,99.99
2022-11-12T05:19:17.825Z,99.99
2022-11-12T05:20:17.788Z,99.99
2022-11-12T05:21:17.780Z,99.99
2022-11-12T05:22:42.119Z,99.99
2022-11-12T05:23:18.761Z,99.99
2022-11-12T05:24:40.483Z,99.99
2022-11-12T05:25:18.734Z,99.99
2022-11-12T05:26:17.724Z,99.99
2022-11-12T05:27:17.712Z,99.99
2022-11-12T05:28:17.717Z,99.99
2022-11-12T05:29:17.691Z,99.99
2022-11-12T05:30:17.699Z,99.99
2022-11-12T05:31:17.694Z,99.99
2022-11-12T05:32:17.657Z,99.99
2022-11-12T05:33:17.643Z,99.99
2022-11-12T05:34:22.739Z,99.99
2022-11-12T05:35:18.642Z,99.99
2022-11-12T05:36:17.646Z,99.99
2022-11-12T05:37:17.600Z,99.99
2022-11-12T05:38:17.609Z,99.99
2022-11-12T05:39:17.604Z,99.99
2022-11-12T05:40:17.678Z,99.99
2022-11-12T05:41:20.337Z,99.99
2022-11-12T05:42:17.544Z,99.99
2022-11-12T05:43:17.556Z,99.99
2022-11-12T05:44:17.539Z,99.99
2022-11-12T05:45:17.509Z,99.99
2022-11-12T05:46:17.496Z,99.99
2022-11-12T05:47:17.488Z,99.99
2022-11-12T05:48:22.994Z,99.99
2022-11-12T05:49:18.641Z,99.99
2022-11-12T05:50:17.452Z,99.99
2022-11-12T05:51:17.445Z,99.99
2022-11-12T05:52:17.450Z,99.99
2022-11-12T05:53:17.420Z,99.99
2022-11-12T05:54:17.692Z,99.99
2022-11-12T05:55:17.410Z,99.99
2022-11-12T05:56:17.499Z,99.99
2022-11-12T05:57:17.397Z,99.99
2022-11-12T05:58:17.377Z,99.99
2022-11-12T05:59:17.351Z,99.99
2022-11-12T06:00:17.341Z,99.99
2022-11-12T06:01:17.333Z,99.99
2022-11-12T06:02:17.435Z,99.99
2022-11-12T06:03:17.311Z,99.99
2022-11-12T06:04:17.321Z,99.99
2022-11-12T06:05:17.286Z,99.99
2022-11-12T06:06:17.276Z,99.99
2022-11-12T06:07:17.304Z,99.99
2022-11-12T06:08:17.254Z,99.99
2022-11-12T06:09:17.265Z,99.99
2022-11-12T06:10:20.489Z,99.99
2022-11-12T06:11:17.222Z,99.99
2022-11-12T06:12:17.351Z,99.99
2022-11-12T06:13:17.196Z,99.99
2022-11-12T06:14:17.209Z,99.99
2022-11-12T06:15:17.177Z,99.99
2022-11-12T06:16:17.166Z,99.99
2022-11-12T06:17:17.153Z,99.99
2022-11-12T06:18:17.142Z,99.99
2022-11-12T06:19:17.132Z,99.99
2022-11-12T06:20:17.144Z,99.99
2022-11-12T06:21:17.106Z,99.99
2022-11-12T06:22:17.117Z,99.99
2022-11-12T06:23:17.087Z,99.99
2022-11-12T06:24:17.084Z,99.99
2022-11-12T06:25:17.083Z,99.99
2022-11-12T06:26:17.054Z,99.99
2022-11-12T06:27:17.061Z,99.99
2022-11-12T06:28:17.205Z,99.99
2022-11-12T06:29:17.019Z,99.99
2022-11-12T06:30:17.547Z,99.99
2022-11-12T06:31:16.996Z,99.99
2022-11-12T06:32:17.024Z,99.99
2022-11-12T06:33:16.972Z,99.99
2022-11-12T06:34:16.964Z,99.99
2022-11-12T06:35:16.951Z,99.99
2022-11-12T06:36:16.942Z,99.99
2022-11-12T06:37:16.952Z,99.99
2022-11-12T06:38:16.924Z,99.99
2022-11-12T06:39:16.927Z,99.99
2022-11-12T06:40:16.895Z,99.99
2022-11-12T06:41:16.882Z,99.99
2022-11-12T06:42:16.879Z,99.99
2022-11-12T06:43:16.860Z,99.99
2022-11-12T06:44:21.967Z,99.99
2022-11-12T06:45:17.839Z,99.99
2022-11-12T06:46:16.831Z,99.99
2022-11-12T06:47:16.836Z,99.99
2022-11-12T06:48:16.807Z,99.99
2022-11-12T06:49:16.926Z,99.99
2022-11-12T06:50:16.783Z,99.99
2022-11-12T06:51:16.793Z,99.99
2022-11-12T06:52:16.968Z,99.99
2022-11-12T06:53:16.751Z,99.99
2022-11-12T06:54:16.765Z,99.99
2022-11-12T06:55:16.725Z,99.99
2022-11-12T06:56:16.898Z,99.99
2022-11-12T06:57:16.766Z,99.99
2022-11-12T06:58:16.696Z,99.99
2022-11-12T07:01:37.300Z,99.99
2022-11-12T07:02:37.141Z,99.99
2022-11-12T07:03:37.099Z,99.99
2022-11-12T07:04:37.099Z,99.99
2022-11-12T07:05:37.084Z,99.99
2022-11-12T07:06:37.148Z,99.99
2022-11-12T07:07:37.076Z,99.99
2022-11-12T07:08:37.071Z,99.99
2022-11-12T07:09:37.034Z,99.99
2022-11-12T07:10:37.018Z,99.99
2022-11-12T07:11:37.007Z,99.99
2022-11-12T07:12:36.997Z,99.99
2022-11-12T07:13:36.987Z,99.99
2022-11-12T07:14:37.006Z,99.99
2022-11-12T07:15:36.964Z,99.99
2022-11-12T07:16:36.953Z,99.99
2022-11-12T07:17:37.055Z,99.99
2022-11-12T07:18:36.951Z,99.99
2022-11-12T07:19:36.942Z,99.99
2022-11-12T07:20:36.909Z,99.99
2022-11-12T07:21:36.899Z,99.99
2022-11-12T07:22:36.914Z,99.99
2022-11-12T07:23:36.909Z,99.99
2022-11-12T07:24:36.898Z,99.99
2022-11-12T07:25:36.860Z,99.99
2022-11-12T07:26:36.841Z,99.99
2022-11-12T07:27:36.850Z,99.99
2022-11-12T07:28:36.842Z,99.99
2022-11-12T07:29:47.550Z,99.99
2022-11-12T07:30:37.796Z,99.99
2022-11-12T07:31:36.808Z,99.99
2022-11-12T07:32:43.289Z,99.99
2022-11-12T07:33:37.885Z,99.99
2022-11-12T07:34:36.771Z,99.99
2022-11-12T07:35:36.748Z,99.99
2022-11-12T07:36:36.760Z,99.99
2022-11-12T07:37:36.730Z,99.99
2022-11-12T07:38:36.713Z,99.99
2022-11-12T07:39:36.728Z,99.99
2022-11-12T07:40:36.694Z,99.99
2022-11-12T07:41:36.703Z,99.99
2022-11-12T07:42:36.669Z,99.99
2022-11-12T07:43:36.680Z,99.99
2022-11-12T07:44:36.648Z,99.99
2022-11-12T07:45:36.640Z,99.99
2022-11-12T07:46:36.651Z,99.99
2022-11-12T07:47:36.747Z,99.99
2022-11-12T07:48:36.611Z,99.99
2022-11-12T07:49:36.727Z,99.99
2022-11-12T07:50:36.626Z,99.99
2022-11-12T07:51:36.569Z,99.99
2022-11-12T07:52:36.715Z,99.99
2022-11-12T07:53:36.548Z,99.99
2022-11-12T07:54:36.567Z,99.99
2022-11-12T07:55:36.527Z,99.99
2022-11-12T07:56:36.514Z,99.99
2022-11-12T07:57:36.659Z,99.99
2022-11-12T07:58:36.512Z,99.99
2022-11-12T07:59:37.342Z,99.99
2022-11-12T08:00:36.472Z,99.99
2022-11-12T08:01:36.566Z,99.99
2022-11-12T08:02:36.704Z,99.99
2022-11-12T08:03:36.442Z,99.99
2022-11-12T08:04:36.498Z,99.99
2022-11-12T08:05:36.529Z,99.99
2022-11-12T08:06:36.490Z,99.99
2022-11-12T08:07:36.525Z,99.99
2022-11-12T08:08:36.380Z,99.99
2022-11-12T08:09:36.453Z,99.99
2022-11-12T08:10:36.362Z,99.88
2022-11-12T08:11:36.369Z,99.99
2022-11-12T08:12:36.595Z,99.99
2022-11-12T08:13:36.333Z,99.99
2022-11-12T08:14:36.318Z,99.63
2022-11-12T08:15:36.320Z,99.26
2022-11-12T08:16:36.320Z,98.91
2022-11-12T08:17:36.636Z,98.70
2022-11-12T08:18:36.269Z,98.70
2022-11-12T08:19:36.306Z,98.76
2022-11-12T08:20:36.247Z,98.30
2022-11-12T08:21:36.361Z,98.30
2022-11-12T08:22:36.229Z,98.61
2022-11-12T08:23:36.219Z,97.78
2022-11-12T08:24:36.205Z,97.33
2022-11-12T08:25:36.218Z,97.64
2022-11-12T08:26:36.184Z,97.48
2022-11-12T08:27:36.172Z,97.13
2022-11-12T08:28:36.169Z,96.41
2022-11-12T08:29:36.158Z,96.56
2022-11-12T08:30:36.159Z,96.25
2022-11-12T08:31:36.149Z,95.84
2022-11-12T08:32:36.122Z,96.21
2022-11-12T08:33:36.137Z,95.28
2022-11-12T08:34:36.093Z,94.98
2022-11-12T08:35:36.088Z,94.67
2022-11-12T08:36:36.073Z,94.83
2022-11-12T08:37:36.177Z,94.73
2022-11-12T08:38:36.397Z,93.90
2022-11-12T08:39:36.067Z,94.42
2022-11-12T08:40:36.024Z,93.59
2022-11-12T08:41:36.037Z,93.04
2022-11-12T08:42:36.004Z,92.93
2022-11-12T08:43:35.999Z,92.73
2022-11-12T08:44:36.008Z,93.24
2022-11-12T08:45:35.975Z,92.52
2022-11-12T08:46:35.984Z,92.93
2022-11-12T08:47:35.953Z,92.83
2022-11-12T08:48:36.035Z,92.79
2022-11-12T08:49:35.928Z,92.63
2022-11-12T08:50:35.912Z,92.99
2022-11-12T08:51:35.928Z,92.38
2022-11-12T08:52:35.896Z,91.97
2022-11-12T08:53:36.005Z,92.38
2022-11-12T08:54:35.869Z,91.86
2022-11-12T08:55:35.866Z,91.55
2022-11-12T08:56:35.874Z,91.86
2022-11-12T08:57:35.844Z,91.41
2022-11-12T08:58:35.827Z,90.59
2022-11-12T08:59:35.819Z,91.00
2022-11-12T09:00:35.847Z,91.41
2022-11-12T09:01:35.870Z,91.41
2022-11-12T09:02:35.821Z,90.59
2022-11-12T09:03:35.778Z,90.14
2022-11-12T09:04:35.759Z,90.03
2022-11-12T09:05:35.838Z,90.14
2022-11-12T09:06:35.882Z,89.42
2022-11-12T09:07:49.213Z,89.72
2022-11-12T09:08:36.719Z,89.72
2022-11-12T09:09:35.843Z,89.62
2022-11-12T09:10:35.732Z,89.58
2022-11-12T09:11:35.810Z,89.78
2022-11-12T09:12:35.714Z,89.48
2022-11-12T09:13:35.877Z,88.56
2022-11-12T09:14:35.754Z,88.56
2022-11-12T09:15:38.318Z,88.90
2022-11-12T09:16:35.649Z,89.01
2022-11-12T09:17:35.643Z,88.76
2022-11-12T09:18:35.751Z,88.96
2022-11-12T09:19:38.674Z,88.96
2022-11-12T09:20:36.582Z,88.86
2022-11-12T09:21:35.660Z,88.96
2022-11-12T09:22:35.652Z,89.11
2022-11-12T09:23:35.685Z,89.31
2022-11-12T09:24:35.926Z,89.21
2022-11-12T09:25:35.787Z,89.04
2022-11-12T09:26:35.589Z,89.21
2022-11-12T09:27:35.541Z,89.46
2022-11-12T09:28:35.536Z,90.08
2022-11-12T09:29:35.472Z,89.46
2022-11-12T09:30:35.469Z,89.76
2022-11-12T09:31:35.451Z,89.76
2022-11-12T09:32:35.490Z,89.46
2022-11-12T09:33:35.470Z,89.87
2022-11-12T09:34:35.456Z,90.28
2022-11-12T09:35:35.599Z,90.48
2022-11-12T09:36:39.629Z,90.18
2022-11-12T09:37:35.388Z,90.38
2022-11-12T09:38:35.440Z,90.18
2022-11-12T09:39:35.382Z,90.03
2022-11-12T09:40:35.516Z,90.14
2022-11-12T09:41:35.473Z,90.24
2022-11-12T09:42:35.334Z,90.34
2022-11-12T09:43:35.315Z,90.34
2022-11-12T09:44:36.972Z,89.72
2022-11-12T09:45:35.299Z,90.55
2022-11-12T09:46:35.426Z,89.78
2022-11-12T09:47:35.273Z,90.40
2022-11-12T09:48:35.270Z,90.30
2022-11-12T09:49:35.297Z,90.09
2022-11-12T09:50:35.240Z,89.99
2022-11-12T09:51:35.227Z,89.78
2022-11-12T09:52:35.220Z,89.27
2022-11-12T09:53:37.144Z,89.43
2022-11-12T09:54:36.217Z,89.43
2022-11-12T09:55:35.212Z,88.98
2022-11-12T09:56:35.173Z,88.98
2022-11-12T09:57:35.272Z,88.78
2022-11-12T09:58:35.153Z,88.88
2022-11-12T09:59:35.140Z,88.47
2022-11-12T10:00:35.135Z,88.47
2022-11-12T10:01:35.193Z,88.68
2022-11-12T10:02:35.117Z,87.41
2022-11-12T10:03:35.095Z,87.71
2022-11-12T10:04:35.109Z,87.51
2022-11-12T10:05:35.071Z,87.88
2022-11-12T10:06:35.151Z,87.88
2022-11-12T10:07:35.079Z,87.88
2022-11-12T10:08:35.068Z,87.77
2022-11-12T10:09:35.028Z,87.77
2022-11-12T10:10:35.043Z,87.06
2022-11-12T10:11:35.040Z,87.57
2022-11-12T10:12:35.017Z,86.55
2022-11-12T10:13:35.113Z,87.02
2022-11-12T10:14:34.992Z,86.81
2022-11-12T10:15:34.994Z,86.71
2022-11-12T10:16:34.950Z,86.30
2022-11-12T10:17:34.941Z,86.20
2022-11-12T10:18:34.960Z,86.40
2022-11-12T10:19:34.943Z,86.40
2022-11-12T10:20:38.666Z,86.10
2022-11-12T10:21:34.942Z,85.89
2022-11-12T10:22:34.892Z,86.51
2022-11-12T10:23:34.881Z,85.96
2022-11-12T10:24:34.875Z,86.36
2022-11-12T10:25:34.885Z,85.96
2022-11-12T10:26:34.848Z,85.40
2022-11-12T10:27:34.857Z,85.44
2022-11-12T10:28:38.644Z,85.30
2022-11-12T10:29:34.921Z,84.89
2022-11-12T10:30:34.801Z,84.95
2022-11-12T10:31:34.811Z,85.26
2022-11-12T10:32:34.780Z,85.36
2022-11-12T10:33:34.766Z,84.91
2022-11-12T10:34:34.755Z,84.14
2022-11-12T10:35:34.742Z,84.41
2022-11-12T10:36:34.764Z,83.48
2022-11-12T10:37:34.716Z,83.48
2022-11-12T10:38:34.712Z,84.20
2022-11-12T10:39:34.695Z,84.61
2022-11-12T10:40:34.688Z,84.20
2022-11-12T10:41:34.699Z,84.09
2022-11-12T10:42:34.665Z,83.69
2022-11-12T10:43:34.648Z,83.79
2022-11-12T10:44:34.638Z,83.34
2022-11-12T10:45:34.741Z,83.48
2022-11-12T10:46:34.641Z,83.75
2022-11-12T10:47:34.637Z,83.44
2022-11-12T10:48:35.649Z,83.61
2022-11-12T10:49:34.580Z,82.63
2022-11-12T10:50:34.632Z,82.89
2022-11-12T10:51:34.584Z,82.59
2022-11-12T10:52:34.580Z,81.87
2022-11-12T10:53:34.539Z,82.08
2022-11-12T10:54:34.526Z,81.98
2022-11-12T10:55:34.520Z,82.39
2022-11-12T10:56:34.506Z,82.65
2022-11-12T10:57:34.505Z,82.55
2022-11-12T10:58:34.511Z,82.86
2022-11-12T10:59:34.470Z,83.26
2022-11-12T11:00:34.467Z,83.02
2022-11-12T11:01:35.808Z,82.61
2022-11-12T11:02:34.554Z,82.61
2022-11-12T11:03:34.450Z,81.32
2022-11-12T11:04:34.415Z,80.68
2022-11-12T11:05:34.403Z,81.02
2022-11-12T11:06:34.576Z,81.80
2022-11-12T11:07:34.381Z,82.21
2022-11-12T11:08:36.234Z,82.61
2022-11-12T11:09:34.381Z,82.21
2022-11-12T11:10:34.351Z,81.29
2022-11-12T11:11:34.336Z,80.68
2022-11-12T11:12:34.344Z,80.16
2022-11-12T11:13:34.338Z,79.52
2022-11-12T11:14:34.335Z,79.66
2022-11-12T11:15:34.294Z,79.21
2022-11-12T11:16:34.323Z,79.52
2022-11-12T11:17:34.384Z,79.62
2022-11-12T11:18:34.266Z,79.93
2022-11-12T11:19:34.246Z,79.93
2022-11-12T11:20:34.240Z,80.13
2022-11-12T11:21:39.218Z,79.00
2022-11-12T11:22:35.234Z,78.70
2022-11-12T11:23:34.204Z,79.11
2022-11-12T11:24:34.197Z,78.19
2022-11-12T11:25:34.178Z,78.09
2022-11-12T11:26:34.183Z,78.87
2022-11-12T11:27:34.193Z,78.87
2022-11-12T11:28:34.150Z,79.17
2022-11-12T11:29:34.157Z,78.77
2022-11-12T11:30:34.123Z,78.26
2022-11-12T11:31:34.139Z,78.19
2022-11-12T11:32:37.376Z,78.36
2022-11-12T11:33:34.205Z,78.77
2022-11-12T11:34:34.080Z,79.68
2022-11-12T11:35:34.070Z,79.38
2022-11-12T11:36:34.146Z,79.64
2022-11-12T11:37:34.056Z,79.75
2022-11-12T11:38:34.042Z,80.09
2022-11-12T11:39:34.023Z,79.64
2022-11-12T11:40:34.013Z,79.44
2022-11-12T11:41:34.030Z,78.93
2022-11-12T11:42:33.994Z,78.93
2022-11-12T11:43:34.013Z,78.42
2022-11-12T11:44:33.989Z,77.71
2022-11-12T11:45:33.957Z,77.71
2022-11-12T11:46:34.012Z,78.19
2022-11-12T11:47:50.389Z,78.22
2022-11-12T11:48:34.925Z,78.32
2022-11-12T11:49:34.036Z,77.91
2022-11-12T11:50:33.905Z,76.79
2022-11-12T11:51:33.890Z,76.49
2022-11-12T11:52:33.909Z,75.98
2022-11-12T11:53:33.866Z,76.49
2022-11-12T11:54:33.856Z,77.61
2022-11-12T11:55:33.843Z,78.32
2022-11-12T11:56:33.869Z,78.83
2022-11-12T11:57:33.827Z,78.59
2022-11-12T11:58:33.867Z,78.02
2022-11-12T11:59:33.852Z,77.61
2022-11-12T12:00:33.799Z,77.91
2022-11-12T12:01:33.865Z,77.61
2022-11-12T12:02:33.767Z,77.61
2022-11-12T12:03:33.784Z,77.91
2022-11-12T12:04:33.772Z,78.02
2022-11-12T12:05:33.847Z,78.12
2022-11-12T12:06:33.729Z,78.69
2022-11-12T12:07:33.995Z,78.39
2022-11-12T12:08:33.699Z,77.87
2022-11-12T12:09:33.688Z,78.69
2022-11-12T12:10:53.670Z,78.19
2022-11-12T12:11:34.712Z,78.19
2022-11-12T12:12:33.655Z,78.49
2022-11-12T12:13:33.663Z,78.28
2022-11-12T12:14:33.631Z,78.89
2022-11-12T12:15:33.618Z,79.00
2022-11-12T12:16:33.623Z,78.59
2022-11-12T12:17:33.597Z,77.87
2022-11-12T12:18:33.615Z,77.98
2022-11-12T12:19:33.575Z,77.67
2022-11-12T12:20:33.566Z,77.78
2022-11-12T12:21:33.667Z,77.57
2022-11-12T12:22:33.545Z,77.87
2022-11-12T12:23:33.533Z,77.67
2022-11-12T12:24:33.549Z,78.28
2022-11-12T12:25:33.511Z,77.67
2022-11-12T12:26:33.500Z,76.86
2022-11-12T12:27:33.485Z,77.57
2022-11-12T12:28:33.491Z,77.57
2022-11-12T12:29:33.501Z,77.98
2022-11-12T12:30:33.453Z,77.87
2022-11-12T12:31:33.442Z,77.57
2022-11-12T12:32:33.433Z,77.57
2022-11-12T12:33:33.454Z,77.98
2022-11-12T12:34:33.612Z,78.15
2022-11-12T12:35:33.394Z,77.78
2022-11-12T12:36:33.389Z,77.67
2022-11-12T12:37:33.565Z,77.87
2022-11-12T12:38:33.364Z,77.67
2022-11-12T12:39:33.378Z,77.44
2022-11-12T12:40:33.372Z,78.08
2022-11-12T12:41:33.357Z,77.67
2022-11-12T12:42:33.320Z,77.57
2022-11-12T12:43:33.314Z,78.19
2022-11-12T12:44:33.296Z,78.05
2022-11-12T12:45:36.111Z,78.49
2022-11-12T12:46:33.299Z,78.49
2022-11-12T12:47:33.261Z,78.76
2022-11-12T12:48:33.276Z,77.57
2022-11-12T12:49:33.238Z,78.59
2022-11-12T12:50:33.231Z,78.39
2022-11-12T12:51:33.219Z,77.98
2022-11-12T12:52:33.207Z,78.39
2022-11-12T12:53:33.329Z,78.49
2022-11-12T12:54:33.189Z,78.39
2022-11-12T12:55:33.180Z,78.28
2022-11-12T12:56:33.163Z,78.59
2022-11-12T12:57:33.151Z,78.59
2022-11-12T12:58:33.166Z,78.49
2022-11-12T12:59:33.125Z,78.69